createdAt,value
2018-01-27T00:02:07.061Z,20.33
2018-01-27T00:04:35.830Z,22.33
2018-01-27T00:07:04.162Z,20.70
2018-01-27T00:09:33.177Z,23.60
2018-01-27T00:12:01.454Z,15.57
2018-01-27T00:14:29.709Z,23.70
2018-01-27T00:16:58.830Z,19.93
2018-01-27T00:19:27.630Z,17.23
2018-01-27T00:21:55.873Z,20.93
2018-01-27T00:24:24.193Z,25.73
2018-01-27T00:26:52.653Z,18.83
2018-01-27T00:29:20.904Z,19.53
2018-01-27T00:31:49.150Z,23.80
2018-01-27T00:34:17.421Z,22.63
2018-01-27T00:36:45.678Z,20.47
2018-01-27T00:39:14.322Z,25.90
2018-01-27T00:41:43.362Z,21.43
2018-01-27T00:44:11.614Z,27.60
2018-01-27T00:46:39.870Z,27.77
2018-01-27T00:49:08.530Z,20.20
2018-01-27T00:51:36.778Z,25.53
2018-01-27T00:54:05.031Z,21.87
2018-01-27T00:56:33.302Z,30.50
2018-01-27T00:59:01.555Z,27.50
2018-01-27T01:01:29.806Z,23.07
2018-01-27T01:03:58.082Z,22.23
2018-01-27T01:06:26.333Z,23.20
2018-01-27T01:08:54.590Z,28.87
2018-01-27T01:11:23.289Z,26.90
2018-01-27T01:13:51.633Z,29.33
2018-01-27T01:16:20.645Z,28.03
2018-01-27T01:18:48.922Z,31.50
2018-01-27T01:21:17.694Z,28.43
2018-01-27T01:23:46.710Z,24.53
2018-01-27T01:26:14.985Z,25.80
2018-01-27T01:28:43.241Z,28.30
2018-01-27T01:31:11.493Z,25.03
2018-01-27T01:33:39.846Z,21.13
2018-01-27T01:36:08.089Z,20.50
2018-01-27T01:38:36.346Z,21.00
2018-01-27T01:41:05.383Z,27.13
2018-01-27T01:43:39.389Z,27.63
2018-01-27T01:46:07.661Z,22.90
2018-01-27T01:48:35.908Z,20.40
2018-01-27T01:51:04.162Z,24.23
2018-01-27T01:53:33.742Z,21.73
2018-01-27T01:56:01.986Z,26.93
2018-01-27T01:58:30.245Z,24.60
2018-01-27T02:00:58.876Z,21.97
2018-01-27T02:03:27.126Z,22.60
2018-01-27T02:05:55.379Z,21.70
2018-01-27T02:08:23.649Z,21.57
2018-01-27T02:10:52.733Z,29.97
2018-01-27T02:13:20.976Z,32.07
2018-01-27T02:15:49.757Z,23.63
2018-01-27T02:18:18.014Z,23.97
2018-01-27T02:20:46.270Z,36.20
2018-01-27T02:23:14.878Z,29.43
2018-01-27T02:25:43.126Z,28.10
2018-01-27T02:28:11.370Z,23.50
2018-01-27T02:30:39.654Z,24.10
2018-01-27T02:33:07.928Z,27.43
2018-01-27T02:35:36.189Z,30.27
2018-01-27T02:38:05.146Z,30.40
2018-01-27T02:40:33.407Z,32.07
2018-01-27T02:43:01.654Z,31.13
2018-01-27T02:45:30.702Z,37.13
2018-01-27T02:47:58.945Z,30.93
2018-01-27T02:50:27.970Z,29.00
2018-01-27T02:52:56.246Z,35.23
2018-01-27T02:55:24.493Z,25.27
2018-01-27T02:57:52.750Z,23.90
2018-01-27T03:00:21.513Z,29.97
2018-01-27T03:02:49.771Z,26.83
2018-01-27T03:05:18.018Z,31.83
2018-01-27T03:07:46.414Z,25.50
2018-01-27T03:10:14.645Z,25.10
2018-01-27T03:12:42.900Z,25.40
2018-01-27T03:15:11.174Z,32.53
2018-01-27T03:17:39.429Z,20.80
2018-01-27T03:20:09.693Z,24.40
2018-01-27T03:22:38.178Z,22.30
2018-01-27T03:25:06.790Z,33.40
2018-01-27T03:27:35.810Z,26.70
2018-01-27T03:30:04.190Z,29.53
2018-01-27T03:32:32.454Z,26.10
2018-01-27T03:35:00.694Z,22.20
2018-01-27T03:37:28.970Z,21.50
2018-01-27T03:39:57.222Z,22.43
2018-01-27T03:42:25.470Z,26.33
2018-01-27T03:44:54.173Z,24.13
2018-01-27T03:47:22.464Z,21.93
2018-01-27T03:49:50.707Z,24.73
2018-01-27T03:52:18.986Z,21.20
2018-01-27T03:54:47.242Z,21.90
2018-01-27T03:57:15.486Z,25.07
2018-01-27T03:59:44.525Z,26.27
2018-01-27T04:02:12.778Z,22.73
2018-01-27T04:04:42.974Z,26.30
2018-01-27T04:07:11.490Z,21.47
2018-01-27T04:09:39.740Z,21.77
2018-01-27T04:12:07.986Z,23.97
2018-01-27T04:14:36.268Z,21.40
2018-01-27T04:17:04.518Z,21.50
2018-01-27T04:19:32.774Z,20.30
2018-01-27T04:22:01.046Z,24.53
2018-01-27T04:24:30.058Z,25.87
2018-01-27T04:26:58.489Z,28.97
2018-01-27T04:29:27.149Z,31.60
2018-01-27T04:31:55.406Z,29.43
2018-01-27T04:34:23.658Z,27.00
2018-01-27T04:36:51.929Z,24.70
2018-01-27T04:39:20.946Z,24.80
2018-01-27T04:41:49.198Z,23.37
2018-01-27T04:44:17.477Z,24.47
2018-01-27T04:46:45.726Z,31.13
2018-01-27T04:49:13.996Z,26.67
2018-01-27T04:51:42.575Z,25.63
2018-01-27T04:54:10.824Z,27.00
2018-01-27T04:56:39.080Z,26.13
2018-01-27T04:59:07.350Z,27.20
2018-01-27T05:01:36.370Z,26.70
2018-01-27T05:04:04.622Z,28.20
2018-01-27T05:06:32.898Z,31.80
2018-01-27T05:09:01.150Z,31.47
2018-01-27T05:11:29.408Z,31.50
2018-01-27T05:13:58.166Z,29.23
2018-01-27T05:16:26.414Z,31.90
2018-01-27T05:18:54.674Z,31.00
2018-01-27T05:21:23.066Z,29.53
2018-01-27T05:23:52.324Z,35.13
2018-01-27T05:26:20.569Z,31.77
2018-01-27T05:28:49.157Z,30.13
2018-01-27T05:31:17.413Z,35.50
2018-01-27T05:33:45.658Z,34.33
2018-01-27T05:36:14.930Z,43.50
2018-01-27T05:38:43.214Z,30.67
2018-01-27T05:41:11.457Z,33.73
2018-01-27T05:43:39.734Z,29.00
2018-01-27T05:46:07.981Z,35.50
2018-01-27T05:48:36.225Z,24.37
2018-01-27T05:51:04.499Z,64.33
2018-01-27T05:53:32.750Z,49.77
2018-01-27T05:56:00.998Z,41.80
2018-01-27T05:58:30.386Z,35.17
2018-01-27T06:00:58.641Z,36.40
2018-01-27T06:03:26.891Z,65.43
2018-01-27T06:05:55.166Z,33.60
2018-01-27T06:08:23.426Z,39.93
2018-01-27T06:10:51.677Z,59.80
2018-01-27T06:13:19.954Z,74.10
2018-01-27T06:15:48.982Z,72.27
2018-01-27T06:18:17.244Z,39.63
2018-01-27T06:20:45.563Z,28.77
2018-01-27T06:23:13.813Z,31.30
2018-01-27T06:25:42.078Z,31.10
2018-01-27T06:28:10.358Z,74.17
2018-01-27T06:30:38.919Z,34.17
2018-01-27T06:33:07.938Z,37.23
2018-01-27T06:35:36.239Z,43.97
2018-01-27T06:38:04.486Z,33.33
2018-01-27T06:40:32.735Z,36.27
2018-01-27T06:43:02.086Z,34.77
2018-01-27T06:45:30.344Z,45.10
2018-01-27T06:47:58.586Z,37.77
2018-01-27T06:50:26.862Z,41.83
2018-01-27T06:52:56.027Z,35.83
2018-01-27T06:55:24.250Z,41.40
2018-01-27T06:57:52.526Z,45.63
2018-01-27T07:00:20.781Z,46.03
2018-01-27T07:02:49.030Z,35.80
2018-01-27T07:05:17.707Z,36.70
2018-01-27T07:07:46.143Z,36.30
2018-01-27T07:10:15.158Z,32.53
2018-01-27T07:12:43.437Z,41.77
2018-01-27T07:15:11.748Z,34.00
2018-01-27T07:17:39.988Z,41.53
2018-01-27T07:20:08.690Z,81.27
2018-01-27T07:22:36.949Z,47.97
2018-01-27T07:25:05.197Z,60.13
2018-01-27T07:27:33.841Z,45.53
2018-01-27T07:30:02.091Z,51.13
2018-01-27T07:32:30.549Z,84.97
2018-01-27T07:34:59.585Z,49.67
2018-01-27T07:37:27.833Z,55.40
2018-01-27T07:39:56.090Z,53.40
2018-01-27T07:42:24.374Z,41.07
2018-01-27T07:44:53.402Z,58.30
2018-01-27T07:47:21.745Z,58.53
2018-01-27T07:49:51.086Z,46.80
2018-01-27T07:52:19.338Z,35.20
2018-01-27T07:54:47.594Z,82.30
2018-01-27T07:57:15.870Z,53.30
2018-01-27T07:59:44.885Z,59.57
2018-01-27T08:02:13.138Z,73.37
2018-01-27T08:04:41.418Z,66.23
2018-01-27T08:07:09.669Z,59.00
2018-01-27T08:09:37.918Z,73.57
2018-01-27T08:12:06.510Z,41.30
2018-01-27T08:14:34.750Z,41.47
2018-01-27T08:17:03.010Z,43.87
2018-01-27T08:19:31.290Z,54.67
2018-01-27T08:22:00.317Z,35.67
2018-01-27T08:24:28.662Z,51.43
2018-01-27T08:26:57.707Z,72.87
2018-01-27T08:29:25.961Z,42.93
2018-01-27T08:31:54.218Z,27.33
2018-01-27T08:34:23.862Z,52.80
2018-01-27T08:36:52.119Z,35.63
2018-01-27T08:39:20.370Z,37.00
2018-01-27T08:41:48.652Z,28.97
2018-01-27T08:44:16.890Z,23.23
2018-01-27T08:46:45.142Z,27.17
2018-01-27T08:49:13.422Z,25.67
2018-01-27T08:51:41.684Z,22.73
2018-01-27T08:54:09.926Z,18.90
2018-01-27T08:56:38.569Z,17.23
2018-01-27T08:59:06.815Z,22.13
2018-01-27T09:01:35.066Z,19.03
2018-01-27T09:04:03.514Z,24.63
2018-01-27T09:06:31.769Z,31.40
2018-01-27T09:09:00.030Z,26.93
2018-01-27T09:11:28.309Z,29.53
2018-01-27T09:13:56.554Z,28.30
2018-01-27T09:16:25.574Z,27.30
2018-01-27T09:18:54.178Z,28.70
2018-01-27T09:21:22.438Z,22.50
2018-01-27T09:23:50.682Z,22.97
2018-01-27T09:26:19.840Z,36.93
2018-01-27T09:28:52.018Z,28.30
2018-01-27T09:31:20.326Z,25.67
2018-01-27T09:33:48.662Z,43.70
2018-01-27T09:36:17.185Z,32.00
2018-01-27T09:38:46.394Z,34.30
2018-01-27T09:41:14.641Z,37.33
2018-01-27T09:43:42.910Z,24.57
2018-01-27T09:46:11.190Z,49.83
2018-01-27T09:48:40.945Z,35.83
2018-01-27T09:51:10.195Z,37.93
2018-01-27T09:53:38.714Z,32.40
2018-01-27T09:56:06.957Z,41.33
2018-01-27T09:58:35.205Z,46.50
2018-01-27T10:01:03.792Z,35.57
2018-01-27T10:03:32.046Z,29.03
2018-01-27T10:06:00.592Z,28.93
2018-01-27T10:08:29.043Z,29.13
2018-01-27T10:10:57.574Z,26.40
2018-01-27T10:13:26.594Z,30.70
2018-01-27T10:15:54.946Z,23.67
2018-01-27T10:18:25.149Z,36.60
2018-01-27T10:20:54.137Z,28.97
2018-01-27T10:23:22.578Z,30.07
2018-01-27T10:25:50.894Z,25.50
2018-01-27T10:28:19.266Z,29.53
2018-01-27T10:30:47.542Z,33.40
2018-01-27T10:33:15.794Z,31.30
2018-01-27T10:35:44.288Z,26.87
2018-01-27T10:38:13.152Z,28.40
2018-01-27T10:40:41.398Z,35.10
2018-01-27T10:43:09.655Z,29.50
2018-01-27T10:45:38.170Z,29.00
2018-01-27T10:48:06.422Z,30.77
2018-01-27T10:50:34.673Z,42.43
2018-01-27T10:53:02.954Z,37.30
2018-01-27T10:55:31.438Z,32.07
2018-01-27T10:57:59.818Z,40.27
2018-01-27T11:00:28.220Z,39.63
2018-01-27T11:02:57.242Z,35.00
2018-01-27T11:05:25.571Z,31.23
2018-01-27T11:07:54.184Z,29.27
2018-01-27T11:10:22.395Z,43.90
2018-01-27T11:12:50.706Z,32.00
2018-01-27T11:15:18.978Z,30.07
2018-01-27T11:17:47.244Z,30.73
2018-01-27T11:20:15.546Z,28.00
2018-01-27T11:22:44.106Z,29.57
2018-01-27T11:25:12.330Z,27.10
2018-01-27T11:27:41.341Z,22.87
2018-01-27T11:30:11.089Z,33.83
2018-01-27T11:32:39.346Z,20.23
2018-01-27T11:35:07.591Z,21.30
2018-01-27T11:37:36.150Z,23.60
2018-01-27T11:40:04.726Z,24.40
2018-01-27T11:42:33.106Z,17.73
2018-01-27T11:45:01.382Z,20.20
2018-01-27T11:47:29.741Z,21.00
2018-01-27T11:49:57.971Z,19.77
2018-01-27T11:52:26.502Z,21.77
2018-01-27T11:54:54.752Z,18.90
2018-01-27T11:57:23.069Z,21.93
2018-01-27T11:59:51.478Z,22.50
2018-01-27T12:02:20.494Z,18.50
2018-01-27T12:04:48.825Z,25.63
2018-01-27T12:07:17.346Z,22.03
2018-01-27T12:09:45.768Z,23.90
2018-01-27T12:12:15.222Z,24.67
2018-01-27T12:14:44.322Z,24.80
2018-01-27T12:17:12.590Z,25.83
2018-01-27T12:19:41.610Z,22.07
2018-01-27T12:22:09.982Z,27.50
2018-01-27T12:24:38.997Z,29.93
2018-01-27T12:27:07.481Z,26.90
2018-01-27T12:29:35.746Z,24.77
2018-01-27T12:32:06.222Z,27.60
2018-01-27T12:34:34.486Z,27.83
2018-01-27T12:37:02.822Z,24.27
2018-01-27T12:39:31.118Z,26.93
2018-01-27T12:42:00.191Z,24.27
2018-01-27T12:44:28.469Z,31.47
2018-01-27T12:46:57.723Z,34.43
2018-01-27T12:49:26.106Z,33.43
2018-01-27T12:51:54.514Z,33.27
2018-01-27T12:54:22.774Z,29.37
2018-01-27T12:56:51.026Z,32.17
2018-01-27T12:59:19.696Z,29.90
2018-01-27T13:01:47.946Z,39.83
2018-01-27T13:04:16.202Z,36.43
2018-01-27T13:06:45.694Z,30.83
2018-01-27T13:09:14.716Z,31.30
2018-01-27T13:11:43.973Z,31.97
2018-01-27T13:14:12.270Z,29.47
2018-01-27T13:16:40.519Z,31.40
2018-01-27T13:19:08.794Z,39.07
2018-01-27T13:21:37.122Z,36.57
2018-01-27T13:24:05.370Z,34.60
2018-01-27T13:26:33.626Z,30.00
2018-01-27T13:29:01.898Z,32.83
2018-01-27T13:31:30.283Z,28.60
2018-01-27T13:33:58.522Z,34.03
2018-01-27T13:36:26.861Z,32.90
2018-01-27T13:38:55.878Z,36.47
2018-01-27T13:41:24.210Z,35.83
2018-01-27T13:43:53.226Z,30.10
2018-01-27T13:46:22.502Z,30.53
2018-01-27T13:48:50.889Z,31.30
2018-01-27T13:51:21.153Z,35.40
2018-01-27T13:53:52.250Z,31.70
2018-01-27T13:56:20.503Z,33.87
2018-01-27T13:58:48.825Z,30.97
2018-01-27T14:01:17.091Z,33.20
2018-01-27T14:03:45.598Z,29.47
2018-01-27T14:06:13.870Z,30.30
2018-01-27T14:08:44.382Z,27.33
2018-01-27T14:11:12.750Z,31.80
2018-01-27T14:13:41.457Z,28.53
2018-01-27T14:16:10.497Z,27.93
2018-01-27T14:18:38.774Z,32.63
2018-01-27T14:21:07.569Z,25.00
2018-01-27T14:23:35.874Z,28.20
2018-01-27T14:26:04.144Z,27.70
2018-01-27T14:28:32.405Z,29.10
2018-01-27T14:31:00.780Z,26.20
2018-01-27T14:33:29.025Z,28.87
2018-01-27T14:35:57.306Z,26.90
2018-01-27T14:38:25.572Z,24.07
2018-01-27T14:40:54.583Z,28.20
2018-01-27T14:43:22.988Z,28.40
2018-01-27T14:45:51.285Z,29.23
2018-01-27T14:48:19.856Z,22.43
2018-01-27T14:50:48.234Z,32.97
2018-01-27T14:53:16.475Z,29.73
2018-01-27T14:55:46.182Z,28.03
2018-01-27T14:58:14.497Z,31.80
2018-01-27T15:00:42.744Z,33.10
2018-01-27T15:03:10.994Z,29.67
2018-01-27T15:05:40.352Z,33.27
2018-01-27T15:08:08.598Z,24.57
2018-01-27T15:10:36.920Z,33.13
2018-01-27T15:13:05.355Z,29.67
2018-01-27T15:15:34.458Z,21.13
2018-01-27T15:18:02.706Z,23.47
2018-01-27T15:20:31.737Z,24.23
2018-01-27T15:23:00.261Z,25.20
2018-01-27T15:25:28.490Z,29.60
2018-01-27T15:27:57.095Z,26.87
2018-01-27T15:30:25.349Z,19.47
2018-01-27T15:32:54.791Z,22.03
2018-01-27T15:35:23.336Z,22.80
2018-01-27T15:37:51.585Z,24.83
2018-01-27T15:40:20.602Z,19.33
2018-01-27T15:42:48.954Z,19.87
2018-01-27T15:45:18.530Z,25.30
2018-01-27T15:47:47.186Z,19.10
2018-01-27T15:50:15.578Z,22.20
2018-01-27T15:52:43.810Z,21.03
2018-01-27T15:55:12.966Z,14.80
2018-01-27T15:57:41.255Z,21.37
2018-01-27T16:00:10.041Z,17.33
2018-01-27T16:02:38.305Z,18.83
2018-01-27T16:05:06.632Z,19.63
2018-01-27T16:07:34.822Z,23.90
2018-01-27T16:10:03.254Z,23.80
2018-01-27T16:12:31.698Z,22.97
2018-01-27T16:15:00.510Z,24.80
2018-01-27T16:17:28.883Z,23.70
2018-01-27T16:19:57.543Z,24.10
2018-01-27T16:22:27.398Z,23.83
2018-01-27T16:24:58.194Z,28.43
2018-01-27T16:27:26.554Z,23.60
2018-01-27T16:29:55.602Z,20.93
2018-01-27T16:32:23.878Z,29.77
2018-01-27T16:34:52.451Z,23.40
2018-01-27T16:37:20.697Z,20.57
2018-01-27T16:39:49.013Z,19.53
2018-01-27T16:42:17.432Z,19.43
2018-01-27T16:44:46.455Z,21.03
2018-01-27T16:47:15.694Z,18.47
2018-01-27T16:49:44.131Z,20.73
2018-01-27T16:52:12.458Z,19.00
2018-01-27T16:54:40.832Z,19.00
2018-01-27T16:57:09.612Z,21.20
2018-01-27T16:59:37.906Z,22.43
2018-01-27T17:02:07.222Z,23.87
2018-01-27T17:04:36.041Z,23.80
2018-01-27T17:07:04.295Z,20.83
2018-01-27T17:09:33.318Z,22.60
2018-01-27T17:12:01.586Z,22.03
2018-01-27T17:14:29.899Z,19.83
2018-01-27T17:16:58.154Z,26.20
2018-01-27T17:19:26.858Z,25.93
2018-01-27T17:21:55.106Z,24.33
2018-01-27T17:24:23.364Z,25.53
2018-01-27T17:26:51.642Z,26.50
2018-01-27T17:29:20.086Z,29.53
2018-01-27T17:31:48.362Z,26.77
2018-01-27T17:34:16.838Z,27.20
2018-01-27T17:36:48.185Z,20.03
2018-01-27T17:39:17.094Z,24.00
2018-01-27T17:41:45.842Z,21.77
2018-01-27T17:44:14.135Z,21.87
2018-01-27T17:46:44.015Z,25.70
2018-01-27T17:49:12.598Z,27.00
2018-01-27T17:51:40.850Z,27.07
2018-01-27T17:54:09.130Z,23.40
2018-01-27T17:56:37.378Z,23.87
2018-01-27T17:59:06.130Z,17.60
2018-01-27T18:01:35.314Z,20.50
2018-01-27T18:04:03.753Z,19.80
2018-01-27T18:06:32.122Z,15.60
2018-01-27T18:09:00.542Z,16.33
2018-01-27T18:11:28.883Z,18.60
2018-01-27T18:13:57.306Z,18.47
2018-01-27T18:16:26.381Z,20.60
2018-01-27T18:18:55.614Z,22.03
2018-01-27T18:21:24.849Z,24.73
2018-01-27T18:23:53.619Z,21.97
2018-01-27T18:26:22.862Z,16.50
2018-01-27T18:28:51.877Z,18.57
2018-01-27T18:31:21.157Z,21.17
2018-01-27T18:33:50.167Z,21.57
2018-01-27T18:36:19.426Z,21.23
2018-01-27T18:38:47.722Z,18.80
2018-01-27T18:41:15.978Z,19.17
2018-01-27T18:43:44.242Z,19.27
2018-01-27T18:46:12.565Z,22.60
2018-01-27T18:48:40.899Z,24.60
2018-01-27T18:51:09.129Z,25.30
2018-01-27T18:53:37.502Z,22.87
2018-01-27T18:56:07.880Z,22.50
2018-01-27T18:58:37.306Z,23.60
2018-01-27T19:01:05.595Z,24.70
2018-01-27T19:03:34.556Z,23.17
2018-01-27T19:06:02.895Z,20.70
2018-01-27T19:08:31.210Z,23.97
2018-01-27T19:11:01.751Z,21.20
2018-01-27T19:13:30.030Z,27.57
2018-01-27T19:15:58.470Z,23.00
2018-01-27T19:18:26.798Z,26.10
2018-01-27T19:20:55.166Z,25.10
2018-01-27T19:23:26.706Z,23.53
2018-01-27T19:25:54.997Z,24.93
2018-01-27T19:28:23.317Z,25.43
2018-01-27T19:30:51.727Z,22.47
2018-01-27T19:33:19.978Z,24.77
2018-01-27T19:35:48.230Z,24.57
2018-01-27T19:38:17.302Z,22.90
2018-01-27T19:40:45.554Z,28.40
2018-01-27T19:43:13.827Z,29.40
2018-01-27T19:45:42.102Z,25.47
2018-01-27T19:48:11.218Z,24.97
2018-01-27T19:50:39.466Z,28.70
2018-01-27T19:53:08.820Z,29.10
2018-01-27T19:55:37.086Z,26.10
2018-01-27T19:58:05.604Z,27.63
2018-01-27T20:00:33.865Z,28.60
2018-01-27T20:03:02.882Z,27.00
2018-01-27T20:05:32.134Z,27.10
2018-01-27T20:08:00.412Z,28.53
2018-01-27T20:10:28.949Z,29.90
2018-01-27T20:12:57.278Z,24.67
2018-01-27T20:15:27.687Z,26.40
2018-01-27T20:17:56.069Z,23.80
2018-01-27T20:20:29.194Z,25.50
2018-01-27T20:22:59.070Z,24.17
2018-01-27T20:25:29.306Z,28.23
2018-01-27T20:27:57.870Z,29.50
2018-01-27T20:30:26.199Z,26.37
2018-01-27T20:32:55.370Z,20.27
2018-01-27T20:35:23.852Z,30.17
2018-01-27T20:37:52.133Z,21.33
2018-01-27T20:40:20.629Z,25.83
2018-01-27T20:42:48.918Z,25.73
2018-01-27T20:45:17.930Z,30.40
2018-01-27T20:47:46.178Z,26.70
2018-01-27T20:50:14.970Z,20.30
2018-01-27T20:52:43.998Z,22.13
2018-01-27T20:55:14.461Z,21.40
2018-01-27T20:57:43.230Z,23.47
2018-01-27T21:00:11.715Z,20.53
2018-01-27T21:02:40.105Z,19.90
2018-01-27T21:05:08.418Z,25.47
2018-01-27T21:07:41.274Z,20.43
2018-01-27T21:10:09.695Z,25.03
2018-01-27T21:12:43.569Z,22.13
2018-01-27T21:15:12.073Z,22.77
2018-01-27T21:17:40.454Z,21.47
2018-01-27T21:20:08.802Z,22.23
2018-01-27T21:22:37.273Z,21.50
2018-01-27T21:25:05.514Z,28.57
2018-01-27T21:27:33.762Z,24.20
2018-01-27T21:30:02.062Z,25.30
2018-01-27T21:32:30.306Z,26.40
2018-01-27T21:34:58.669Z,27.70
2018-01-27T21:37:27.166Z,25.87
2018-01-27T21:39:55.540Z,25.20
2018-01-27T21:42:23.806Z,28.23
2018-01-27T21:44:52.251Z,29.23
2018-01-27T21:47:20.600Z,19.67
2018-01-27T21:49:49.613Z,23.37
2018-01-27T21:52:17.894Z,26.40
2018-01-27T21:54:46.375Z,20.77
2018-01-27T21:57:14.730Z,21.67
2018-01-27T21:59:44.081Z,24.63
2018-01-27T22:02:12.379Z,23.20
2018-01-27T22:04:40.640Z,23.07
2018-01-27T22:07:08.912Z,19.03
2018-01-27T22:09:38.125Z,17.80
2018-01-27T22:12:07.441Z,25.87
2018-01-27T22:14:35.706Z,22.77
2018-01-27T22:17:04.290Z,26.37
2018-01-27T22:19:32.549Z,24.07
2018-01-27T22:22:01.035Z,24.63
2018-01-27T22:24:29.337Z,30.17
2018-01-27T22:26:57.896Z,28.20
2018-01-27T22:29:26.158Z,26.90
2018-01-27T22:31:54.462Z,26.90
2018-01-27T22:34:22.845Z,23.60
2018-01-27T22:36:52.178Z,21.90
2018-01-27T22:39:21.194Z,24.50
2018-01-27T22:41:51.669Z,26.57
2018-01-27T22:44:20.138Z,26.07
2018-01-27T22:46:48.382Z,24.30
2018-01-27T22:49:17.918Z,26.80
2018-01-27T22:51:46.438Z,27.23
2018-01-27T22:54:16.646Z,24.27
2018-01-27T22:56:44.893Z,23.60
2018-01-27T22:59:15.262Z,24.93
2018-01-27T23:01:44.338Z,30.83
2018-01-27T23:04:13.597Z,22.43
2018-01-27T23:06:42.038Z,24.67
2018-01-27T23:09:10.285Z,22.20
2018-01-27T23:11:38.684Z,23.93
2018-01-27T23:14:07.284Z,24.90
2018-01-27T23:16:35.738Z,20.93
2018-01-27T23:19:04.498Z,22.50
2018-01-27T23:21:32.776Z,20.50
2018-01-27T23:24:01.030Z,20.03
2018-01-27T23:26:29.282Z,22.90
2018-01-27T23:28:58.409Z,27.37
2018-01-27T23:31:26.675Z,22.33
2018-01-27T23:33:55.690Z,19.00
2018-01-27T23:36:24.191Z,21.47
2018-01-27T23:38:52.422Z,22.00
2018-01-27T23:41:20.674Z,24.40
2018-01-27T23:43:48.958Z,18.90
2018-01-27T23:46:18.011Z,22.00
2018-01-27T23:48:46.396Z,22.43
2018-01-27T23:51:14.705Z,22.20
2018-01-27T23:53:43.894Z,23.63
2018-01-27T23:56:12.147Z,23.37
2018-01-27T23:58:40.418Z,25.97
